Redwood City, CA (94061)

3:28 AM PST on January 27, 2015 (GMT -0800)
Portola Valley | Change Station
CLOSE
Current Station
Personal Weather Station
Location: Portola Valley, CA
Elevation: 764 ft
Nearby Weather Stations

Elev 764 ft 37.39 °N, 122.20 °W | Updated 6 seconds ago

Overcast
Overcast
61.0 °F
Feels Like 61.0 °F
N
7.2
Wind Variable Wind from WNW
Gusts 7.4 mph

Today
High -- | Low -- °F
--% Chance of Precip.
Yesterday
High -- | Low -- °F
Precip. -- in
7:16 AM 5:27 PM
First Quarter, 53% visible
Pressure 30.06 in
Visibility 10.0 miles
Clouds Few 4400 ft
Few 6000 ft
Overcast 10000 ft
Dew Point 42 °F
Humidity 50%
Rainfall 0.00 in
Snow Depth Not available.
UV 0 out of 12
Pollen 6.10 out of 12
Air Quality Not available.
Flu Activity Not available.
METAR KSQL 271110Z AUTO 13007G14KT 10SM FEW044 FEW060 OVC100 14/08 A3006 RMK AO2

More Conditions Fewer Conditions

Pressure 30.06 in
Visibility 10.0 miles
Clouds Few 4400 ft
Few 6000 ft
Overcast 10000 ft
Dew Point 42 °F
Humidity 50%
Rainfall 0.00 in
Snow Depth Not available.
UV 0 out of 12
Pollen 6.10 out of 12
Air Quality Not available.
Flu Activity Not available.
METAR KSQL 271110Z AUTO 13007G14KT 10SM FEW044 FEW060 OVC100 14/08 A3006 RMK AO2

More Conditions Fewer Conditions

10-Day Weather Forecast

Almanac

Astronomy

Jan. 27, 2015 Rise Set
Actual Time
Civil Twilight
Nautical Twilight
Astronomical Twilight
Moon
Length of Visible Light
Length of Day
Tomorrow will be .
, % of the Moon is Illuminated

Today's Extremes

State Highs State Lows

Community

WunderPhotos

Upload Photos

1,790,564 photos uploaded!

WunderBlogs® & News

Nearby

Air Quality

  Air Quality AQ Index Pollutant
Not available.

Snow Depth

Station Depth Elevation

Earthquake Activity

City Distance Mag. Time & Date
Minimum magnitude displayed is 2.5.

Coastal Water Temperatures

Place Temperature

Nearby Weather Stations